Providence, Pennsylvania
Current Conditions -  °F | °C
As of 5:53 PM on Tuesday 27 Jan 2015 (Local Time) from KLNS Reporting Station
Clear Clear  
Wind Chill: 17°   Ceiling: Unl
Heat Index: 29°   Visibility: 10mi
Dew Point: 10°   Wind: 16mph
Humidity: 45%   Direction: 320°NW
Pressure: 29.78"   Gusts: NA
Location:  39.9111°N, 76.2285°W
Report Text: KLNS 272253Z 32014KT 10SM CLR M02/M12 A2978 RMK AO2 SLP089 T10171122
Loading
Personal Weather Stations






























Interactive Weather Map New forecast layout! Learn more

10-Day Weather Forecast

Advertisements
Track Severe Weather on mobile